Billie H — WCY4992 — position and weather

sailwx.info

Track history (hours):
 
Tides and Currents Weather Stations Pressure Air Temp Water Temp Dewpoint Dewpoint Depression Visibility Wind Speed Wind Dir Waves Ship Positions

Billie H

Owner: BOYER TOWING INC, KETCHIKAN, AK. More information available from US FCC via Universal Licensing System and Coast Guard Vessel Documentation Center.

Last reported at 2015-Aug-16 18:00 UTC. Time now 2015-Aug-30 20:02 UTC.
Position N 59°42' W 144°18'.
Warning: this ship's position is 14 days out of date.

Type: Tug. MMSI: 366751770.

Wind from 110 at 15 knots

Waves 1.0 meters (3 feet)

Barometer 1015.0 mb
Air temperature 15.0 ° C
Visibility: greater than 5.4 NM

Date/timePositionNaut miles runAvg speedWind from/ knotsBaromVisibWave heightAir tempDewpointWater temp
2015-Aug-16 18:00N 59°42' W 144°18'264 8.7 110 / 151015.0 5.4 1.015.0
2015-Aug-15 11:33N 58°16' W 136°13'10 9.9
2015-Aug-15 10:33N 58°17' W 135°55'10 9.5
2015-Aug-15 09:32N 58°16' W 135°37'  
2015-Aug-09 21:30N 51°26' W 128°05'13 9.0
2015-Aug-09 20:06N 51°15' W 127°53'5 9.4
2015-Aug-09 19:33N 51°11' W 127°51'10 9.6
2015-Aug-09 18:33N 51°04' W 127°40'9 9.3
2015-Aug-09 17:33N 50°57' W 127°29'90 9.6
2015-Aug-09 08:13N 50°16' W 125°24'7 9.6
2015-Aug-09 07:30N 50°09' W 125°21'4 4.4
2015-Aug-09 06:33N 50°06' W 125°17'7 3.3
2015-Aug-09 04:23N 49°60' W 125°12'5 5.8
2015-Aug-09 03:33N 49°56' W 125°06'6 6.0
2015-Aug-09 02:33N 49°53' W 124°59'6 5.7
2015-Aug-09 01:33N 49°49' W 124°52'7 6.7
2015-Aug-09 00:33N 49°45' W 124°44'9 9.4
2015-Aug-08 23:33N 49°39' W 124°33'10 9.7
2015-Aug-08 22:33N 49°34' W 124°21'10 9.8
2015-Aug-08 21:33N 49°28' W 124°08'10 9.9
2015-Aug-08 20:33N 49°23' W 123°55'10 9.5
2015-Aug-08 19:33N 49°17' W 123°43'10 9.8
2015-Aug-08 18:32N 49°11' W 123°31'1010.1
2015-Aug-08 17:33N 49°04' W 123°21'1010.4
2015-Aug-08 16:33N 48°57' W 123°09'10 9.5
2015-Aug-08 15:33N 48°51' W 122°58'9 9.4
2015-Aug-08 14:33N 48°45' W 122°46'8 7.6
2015-Aug-08 13:33N 48°38' W 122°44'6 6.2
2015-Aug-08 12:33N 48°32' W 122°45'6 5.8
2015-Aug-08 11:30N 48°26' W 122°44'23 7.8
2015-Aug-08 08:29N 48°03' W 122°38'8 9.9
2015-Aug-08 07:40N 47°56' W 122°30'1 9.1
2015-Aug-08 07:33N 47°56' W 122°29'0 8.6
2015-Aug-08 07:31N 47°55' W 122°29'9 9.1
2015-Aug-08 06:33N 47°47' W 122°26'0 8.3
2015-Aug-08 06:31N 47°47' W 122°25'4 7.0
2015-Aug-08 06:01N 47°44' W 122°29'2 5.4
2015-Aug-08 05:33N 47°43' W 122°32'2 1.9
2015-Aug-08 04:33N 47°42' W 122°29'0 9.4
2015-Aug-08 04:31N 47°42' W 122°29'8 8.4
2015-Aug-08 03:33N 47°35' W 122°22'0 6.6
2015-Aug-08 03:31N 47°35' W 122°22'  
Track history (hours):
 
Tides and Currents Weather Stations Pressure Air Temp Water Temp Dewpoint Dewpoint Depression Visibility Wind Speed Wind Dir Waves Ship Positions

Billie H

Owner: BOYER TOWING INC, KETCHIKAN, AK. More information available from US FCC via Universal Licensing System and Coast Guard Vessel Documentation Center.

Last reported at 2015-Aug-16 18:00 UTC. Time now 2015-Aug-30 20:02 UTC.
Position N 59°42' W 144°18'.
Warning: this ship's position is 14 days out of date.

Type: Tug. MMSI: 366751770.

Wind from 110 at 15 knots

Waves 1.0 meters (3 feet)

Barometer 1015.0 mb
Air temperature 15.0 ° C
Visibility: greater than 5.4 NM

Date/timePositionNaut miles runAvg speedWind from/ knotsBaromVisibWave heightAir tempDewpointWater temp
2015-Aug-16 18:00N 59°42' W 144°18'264 8.7 110 / 151015.0 5.4 1.015.0
2015-Aug-15 11:33N 58°16' W 136°13'10 9.9
2015-Aug-15 10:33N 58°17' W 135°55'10 9.5
2015-Aug-15 09:32N 58°16' W 135°37'  
2015-Aug-09 21:30N 51°26' W 128°05'13 9.0
2015-Aug-09 20:06N 51°15' W 127°53'5 9.4
2015-Aug-09 19:33N 51°11' W 127°51'10 9.6
2015-Aug-09 18:33N 51°04' W 127°40'9 9.3
2015-Aug-09 17:33N 50°57' W 127°29'90 9.6
2015-Aug-09 08:13N 50°16' W 125°24'7 9.6
2015-Aug-09 07:30N 50°09' W 125°21'4 4.4
2015-Aug-09 06:33N 50°06' W 125°17'7 3.3
2015-Aug-09 04:23N 49°60' W 125°12'5 5.8
2015-Aug-09 03:33N 49°56' W 125°06'6 6.0
2015-Aug-09 02:33N 49°53' W 124°59'6 5.7
2015-Aug-09 01:33N 49°49' W 124°52'7 6.7
2015-Aug-09 00:33N 49°45' W 124°44'9 9.4
2015-Aug-08 23:33N 49°39' W 124°33'10 9.7
2015-Aug-08 22:33N 49°34' W 124°21'10 9.8
2015-Aug-08 21:33N 49°28' W 124°08'10 9.9
2015-Aug-08 20:33N 49°23' W 123°55'10 9.5
2015-Aug-08 19:33N 49°17' W 123°43'10 9.8
2015-Aug-08 18:32N 49°11' W 123°31'1010.1
2015-Aug-08 17:33N 49°04' W 123°21'1010.4
2015-Aug-08 16:33N 48°57' W 123°09'10 9.5
2015-Aug-08 15:33N 48°51' W 122°58'9 9.4
2015-Aug-08 14:33N 48°45' W 122°46'8 7.6
2015-Aug-08 13:33N 48°38' W 122°44'6 6.2
2015-Aug-08 12:33N 48°32' W 122°45'6 5.8
2015-Aug-08 11:30N 48°26' W 122°44'23 7.8
2015-Aug-08 08:29N 48°03' W 122°38'8 9.9
2015-Aug-08 07:40N 47°56' W 122°30'1 9.1
2015-Aug-08 07:33N 47°56' W 122°29'0 8.6
2015-Aug-08 07:31N 47°55' W 122°29'9 9.1
2015-Aug-08 06:33N 47°47' W 122°26'0 8.3
2015-Aug-08 06:31N 47°47' W 122°25'4 7.0
2015-Aug-08 06:01N 47°44' W 122°29'2 5.4
2015-Aug-08 05:33N 47°43' W 122°32'2 1.9
2015-Aug-08 04:33N 47°42' W 122°29'0 9.4
2015-Aug-08 04:31N 47°42' W 122°29'8 8.4
2015-Aug-08 03:33N 47°35' W 122°22'0 6.6
2015-Aug-08 03:31N 47°35' W 122°22'  

Dump ship's entire track history